sensor_id;sensor_type;location;lat;lon;timestamp;P1;durP1;ratioP1;P2;durP2;ratioP2
18267;SDS011;9260;49.998;19.880;2023-03-01T00:07:09;235.53;;;108.50;;
18267;SDS011;9260;49.998;19.880;2023-03-01T00:17:12;242.20;;;112.90;;
18267;SDS011;9260;49.998;19.880;2023-03-01T00:27:17;234.57;;;106.67;;
18267;SDS011;9260;49.998;19.880;2023-03-01T00:37:22;242.40;;;113.57;;
18267;SDS011;9260;49.998;19.880;2023-03-01T00:47:29;229.83;;;110.10;;
18267;SDS011;9260;49.998;19.880;2023-03-01T00:57:33;238.13;;;110.93;;
18267;SDS011;9260;49.998;19.880;2023-03-01T01:07:38;230.63;;;105.60;;
18267;SDS011;9260;49.998;19.880;2023-03-01T01:17:41;230.27;;;109.27;;
18267;SDS011;9260;49.998;19.880;2023-03-01T01:27:46;231.63;;;107.93;;
18267;SDS011;9260;49.998;19.880;2023-03-01T01:37:50;226.37;;;107.93;;
18267;SDS011;9260;49.998;19.880;2023-03-01T01:47:55;227.43;;;108.93;;
18267;SDS011;9260;49.998;19.880;2023-03-01T01:58:05;221.60;;;105.40;;
18267;SDS011;9260;49.998;19.880;2023-03-01T02:08:13;222.97;;;106.50;;
18267;SDS011;9260;49.998;19.880;2023-03-01T02:18:20;228.87;;;107.27;;
18267;SDS011;9260;49.998;19.880;2023-03-01T02:28:27;222.53;;;104.37;;
18267;SDS011;9260;49.998;19.880;2023-03-01T02:38:33;233.33;;;106.27;;
18267;SDS011;9260;49.998;19.880;2023-03-01T02:48:42;214.47;;;101.20;;
18267;SDS011;9260;49.998;19.880;2023-03-01T02:58:48;222.43;;;104.23;;
18267;SDS011;9260;49.998;19.880;2023-03-01T03:08:55;212.93;;;103.87;;
18267;SDS011;9260;49.998;19.880;2023-03-01T03:18:59;219.67;;;104.20;;
18267;SDS011;9260;49.998;19.880;2023-03-01T03:29:07;224.53;;;106.73;;
18267;SDS011;9260;49.998;19.880;2023-03-01T03:39:11;205.40;;;102.53;;
18267;SDS011;9260;49.998;19.880;2023-03-01T03:49:16;221.37;;;104.10;;
18267;SDS011;9260;49.998;19.880;2023-03-01T03:59:19;231.70;;;108.50;;
18267;SDS011;9260;49.998;19.880;2023-03-01T04:09:24;213.47;;;104.33;;
18267;SDS011;9260;49.998;19.880;2023-03-01T04:19:27;224.03;;;106.87;;
18267;SDS011;9260;49.998;19.880;2023-03-01T04:29:38;215.27;;;105.27;;
18267;SDS011;9260;49.998;19.880;2023-03-01T04:39:42;219.73;;;106.00;;
18267;SDS011;9260;49.998;19.880;2023-03-01T04:49:48;215.63;;;106.07;;
18267;SDS011;9260;49.998;19.880;2023-03-01T04:59:51;226.90;;;109.70;;
18267;SDS011;9260;49.998;19.880;2023-03-01T05:09:56;227.57;;;109.17;;
18267;SDS011;9260;49.998;19.880;2023-03-01T05:20:00;218.60;;;107.47;;
18267;SDS011;9260;49.998;19.880;2023-03-01T05:30:10;219.23;;;107.37;;
18267;SDS011;9260;49.998;19.880;2023-03-01T05:40:18;217.13;;;105.10;;
18267;SDS011;9260;49.998;19.880;2023-03-01T05:50:27;218.23;;;105.17;;
18267;SDS011;9260;49.998;19.880;2023-03-01T06:00:34;213.83;;;105.60;;
18267;SDS011;9260;49.998;19.880;2023-03-01T06:10:39;224.40;;;108.50;;
18267;SDS011;9260;49.998;19.880;2023-03-01T06:20:43;234.33;;;110.27;;
18267;SDS011;9260;49.998;19.880;2023-03-01T06:30:47;219.07;;;106.27;;
18267;SDS011;9260;49.998;19.880;2023-03-01T06:40:53;236.63;;;111.60;;
18267;SDS011;9260;49.998;19.880;2023-03-01T06:50:59;254.93;;;124.70;;
18267;SDS011;9260;49.998;19.880;2023-03-01T07:01:05;256.07;;;117.90;;
18267;SDS011;9260;49.998;19.880;2023-03-01T07:11:10;268.33;;;122.97;;
18267;SDS011;9260;49.998;19.880;2023-03-01T07:21:14;261.00;;;122.23;;
18267;SDS011;9260;49.998;19.880;2023-03-01T07:31:19;267.50;;;123.03;;
18267;SDS011;9260;49.998;19.880;2023-03-01T07:41:23;283.97;;;132.90;;
18267;SDS011;9260;49.998;19.880;2023-03-01T07:51:27;277.83;;;135.53;;
18267;SDS011;9260;49.998;19.880;2023-03-01T08:01:31;280.00;;;135.43;;
18267;SDS011;9260;49.998;19.880;2023-03-01T08:11:36;270.10;;;130.07;;
18267;SDS011;9260;49.998;19.880;2023-03-01T08:21:39;264.50;;;127.27;;
18267;SDS011;9260;49.998;19.880;2023-03-01T08:31:44;268.10;;;131.60;;
18267;SDS011;9260;49.998;19.880;2023-03-01T08:41:48;261.27;;;130.03;;
18267;SDS011;9260;49.998;19.880;2023-03-01T08:51:53;263.37;;;132.27;;
18267;SDS011;9260;49.998;19.880;2023-03-01T09:01:56;259.70;;;133.40;;
18267;SDS011;9260;49.998;19.880;2023-03-01T09:12:01;255.03;;;135.10;;
18267;SDS011;9260;49.998;19.880;2023-03-01T09:22:05;257.77;;;136.40;;
18267;SDS011;9260;49.998;19.880;2023-03-01T09:32:10;254.37;;;137.60;;
18267;SDS011;9260;49.998;19.880;2023-03-01T09:42:14;250.30;;;133.90;;
18267;SDS011;9260;49.998;19.880;2023-03-01T09:52:21;245.10;;;135.93;;
18267;SDS011;9260;49.998;19.880;2023-03-01T10:02:33;243.35;;;134.38;;
18267;SDS011;9260;49.998;19.880;2023-03-01T10:12:46;234.80;;;135.73;;
18267;SDS011;9260;49.998;19.880;2023-03-01T10:22:50;239.73;;;143.10;;
18267;SDS011;9260;49.998;19.880;2023-03-01T10:32:58;238.88;;;143.05;;
18267;SDS011;9260;49.998;19.880;2023-03-01T10:43:04;238.82;;;147.50;;
18267;SDS011;9260;49.998;19.880;2023-03-01T10:53:19;228.80;;;144.63;;
18267;SDS011;9260;49.998;19.880;2023-03-01T11:03:31;233.23;;;143.70;;
18267;SDS011;9260;49.998;19.880;2023-03-01T11:13:37;237.57;;;152.63;;
18267;SDS011;9260;49.998;19.880;2023-03-01T11:23:52;235.02;;;154.02;;
18267;SDS011;9260;49.998;19.880;2023-03-01T11:33:57;228.80;;;151.10;;
18267;SDS011;9260;49.998;19.880;2023-03-01T11:44:14;235.60;;;159.70;;
18267;SDS011;9260;49.998;19.880;2023-03-01T11:54:30;224.13;;;151.32;;
18267;SDS011;9260;49.998;19.880;2023-03-01T12:05:05;233.68;;;156.18;;
18267;SDS011;9260;49.998;19.880;2023-03-01T12:26:10;225.88;;;150.40;;
18267;SDS011;9260;49.998;19.880;2023-03-01T12:36:28;231.60;;;158.52;;
18267;SDS011;9260;49.998;19.880;2023-03-01T12:46:50;224.18;;;150.90;;
18267;SDS011;9260;49.998;19.880;2023-03-01T12:57:11;222.73;;;151.88;;
18267;SDS011;9260;49.998;19.880;2023-03-01T13:07:23;223.13;;;151.13;;
18267;SDS011;9260;49.998;19.880;2023-03-01T13:17:41;236.05;;;174.27;;
18267;SDS011;9260;49.998;19.880;2023-03-01T13:27:49;221.88;;;153.60;;
18267;SDS011;9260;49.998;19.880;2023-03-01T13:37:54;228.65;;;155.52;;
18267;SDS011;9260;49.998;19.880;2023-03-01T13:48:50;225.07;;;148.25;;
18267;SDS011;9260;49.998;19.880;2023-03-01T13:58:59;231.23;;;148.30;;
18267;SDS011;9260;49.998;19.880;2023-03-01T14:09:09;235.80;;;147.77;;
18267;SDS011;9260;49.998;19.880;2023-03-01T14:19:21;232.90;;;141.55;;
18267;SDS011;9260;49.998;19.880;2023-03-01T14:29:36;236.55;;;141.23;;
18267;SDS011;9260;49.998;19.880;2023-03-01T14:39:42;230.90;;;134.50;;
18267;SDS011;9260;49.998;19.880;2023-03-01T14:49:46;249.60;;;147.83;;
18267;SDS011;9260;49.998;19.880;2023-03-01T14:59:54;243.33;;;126.93;;
18267;SDS011;9260;49.998;19.880;2023-03-01T15:10:02;238.43;;;115.50;;
18267;SDS011;9260;49.998;19.880;2023-03-01T15:20:15;237.73;;;113.27;;
18267;SDS011;9260;49.998;19.880;2023-03-01T15:30:25;239.73;;;110.10;;
18267;SDS011;9260;49.998;19.880;2023-03-01T15:40:32;229.87;;;102.10;;
18267;SDS011;9260;49.998;19.880;2023-03-01T15:50:38;237.77;;;101.17;;
18267;SDS011;9260;49.998;19.880;2023-03-01T16:00:46;239.43;;;123.73;;
18267;SDS011;9260;49.998;19.880;2023-03-01T16:11:02;223.30;;;95.43;;
18267;SDS011;9260;49.998;19.880;2023-03-01T16:21:09;218.70;;;95.80;;
18267;SDS011;9260;49.998;19.880;2023-03-01T16:31:18;217.73;;;94.63;;
18267;SDS011;9260;49.998;19.880;2023-03-01T16:41:24;222.50;;;95.70;;
18267;SDS011;9260;49.998;19.880;2023-03-01T16:51:29;231.53;;;97.83;;
18267;SDS011;9260;49.998;19.880;2023-03-01T17:01:37;221.73;;;96.67;;
18267;SDS011;9260;49.998;19.880;2023-03-01T17:11:42;224.17;;;99.63;;
18267;SDS011;9260;49.998;19.880;2023-03-01T17:21:47;217.63;;;91.57;;
18267;SDS011;9260;49.998;19.880;2023-03-01T17:31:51;210.97;;;88.60;;
18267;SDS011;9260;49.998;19.880;2023-03-01T17:41:57;203.60;;;86.40;;
18267;SDS011;9260;49.998;19.880;2023-03-01T17:52:01;212.83;;;93.67;;
18267;SDS011;9260;49.998;19.880;2023-03-01T18:02:06;221.53;;;94.10;;
18267;SDS011;9260;49.998;19.880;2023-03-01T18:12:11;224.90;;;96.20;;
18267;SDS011;9260;49.998;19.880;2023-03-01T18:22:16;222.53;;;100.73;;
18267;SDS011;9260;49.998;19.880;2023-03-01T18:32:20;232.20;;;101.17;;
18267;SDS011;9260;49.998;19.880;2023-03-01T18:42:25;228.97;;;100.30;;
18267;SDS011;9260;49.998;19.880;2023-03-01T18:52:29;221.60;;;97.83;;
18267;SDS011;9260;49.998;19.880;2023-03-01T19:02:34;231.27;;;102.97;;
18267;SDS011;9260;49.998;19.880;2023-03-01T19:12:37;230.93;;;103.93;;
18267;SDS011;9260;49.998;19.880;2023-03-01T19:22:42;242.40;;;104.63;;
18267;SDS011;9260;49.998;19.880;2023-03-01T19:32:46;233.70;;;101.53;;
18267;SDS011;9260;49.998;19.880;2023-03-01T19:42:51;243.00;;;104.17;;
18267;SDS011;9260;49.998;19.880;2023-03-01T19:52:54;233.33;;;103.67;;
18267;SDS011;9260;49.998;19.880;2023-03-01T20:02:59;245.43;;;108.37;;
18267;SDS011;9260;49.998;19.880;2023-03-01T20:13:03;234.07;;;107.40;;
18267;SDS011;9260;49.998;19.880;2023-03-01T20:23:07;307.87;;;149.83;;
18267;SDS011;9260;49.998;19.880;2023-03-01T20:33:11;240.23;;;105.23;;
18267;SDS011;9260;49.998;19.880;2023-03-01T20:43:17;236.33;;;104.87;;
18267;SDS011;9260;49.998;19.880;2023-03-01T20:53:21;254.67;;;122.23;;
18267;SDS011;9260;49.998;19.880;2023-03-01T21:03:29;243.30;;;115.00;;
18267;SDS011;9260;49.998;19.880;2023-03-01T21:13:33;238.33;;;110.37;;
18267;SDS011;9260;49.998;19.880;2023-03-01T21:23:40;250.63;;;117.00;;
18267;SDS011;9260;49.998;19.880;2023-03-01T21:33:45;249.80;;;119.57;;
18267;SDS011;9260;49.998;19.880;2023-03-01T21:43:52;253.43;;;117.57;;
18267;SDS011;9260;49.998;19.880;2023-03-01T21:53:58;238.17;;;109.60;;
18267;SDS011;9260;49.998;19.880;2023-03-01T22:04:03;241.60;;;111.53;;
18267;SDS011;9260;49.998;19.880;2023-03-01T22:14:07;237.03;;;109.87;;
18267;SDS011;9260;49.998;19.880;2023-03-01T22:24:15;239.03;;;114.30;;
18267;SDS011;9260;49.998;19.880;2023-03-01T22:34:19;239.70;;;110.30;;
18267;SDS011;9260;49.998;19.880;2023-03-01T22:44:25;232.80;;;107.57;;
18267;SDS011;9260;49.998;19.880;2023-03-01T22:54:28;245.97;;;112.43;;
18267;SDS011;9260;49.998;19.880;2023-03-01T23:04:33;250.47;;;113.00;;
18267;SDS011;9260;49.998;19.880;2023-03-01T23:14:37;246.43;;;113.10;;
18267;SDS011;9260;49.998;19.880;2023-03-01T23:24:43;259.23;;;116.83;;
18267;SDS011;9260;49.998;19.880;2023-03-01T23:34:46;238.97;;;111.30;;
18267;SDS011;9260;49.998;19.880;2023-03-01T23:44:52;231.67;;;108.20;;
18267;SDS011;9260;49.998;19.880;2023-03-01T23:54:56;236.97;;;110.53;;
